createdAt,value
2018-08-13T00:03:10.963Z,21.10
2018-08-13T00:07:05.023Z,21.00
2018-08-13T00:11:10.092Z,20.80
2018-08-13T00:15:05.294Z,20.60
2018-08-13T00:18:59.298Z,20.60
2018-08-13T00:22:53.350Z,20.70
2018-08-13T00:26:49.639Z,20.90
2018-08-13T00:30:43.698Z,21.00
2018-08-13T00:34:37.652Z,21.20
2018-08-13T00:38:31.622Z,21.30
2018-08-13T00:42:25.639Z,21.50
2018-08-13T00:46:20.260Z,21.70
2018-08-13T00:50:15.214Z,21.80
2018-08-13T00:54:09.152Z,21.80
2018-08-13T00:58:03.187Z,21.80
2018-08-13T01:01:57.344Z,21.70
2018-08-13T01:05:51.476Z,21.60
2018-08-13T01:09:45.520Z,21.50
2018-08-13T01:13:39.548Z,21.50
2018-08-13T01:17:33.580Z,21.40
2018-08-13T01:21:27.501Z,21.40
2018-08-13T01:25:21.553Z,21.30
2018-08-13T01:29:15.690Z,21.10
2018-08-13T01:33:09.746Z,21.00
2018-08-13T01:37:03.851Z,20.90
2018-08-13T01:40:57.993Z,20.70
2018-08-13T01:44:52.083Z,20.60
2018-08-13T01:48:46.140Z,20.50
2018-08-13T01:52:40.825Z,20.40
2018-08-13T01:56:34.787Z,20.30
2018-08-13T02:00:30.927Z,20.20
2018-08-13T02:04:25.056Z,20.10
2018-08-13T02:08:19.113Z,20.10
2018-08-13T02:12:13.430Z,20.20
2018-08-13T02:16:09.540Z,20.20
2018-08-13T02:20:04.603Z,20.20
2018-08-13T02:23:58.562Z,20.30
2018-08-13T02:27:52.734Z,20.50
2018-08-13T02:31:47.126Z,20.60
2018-08-13T02:35:41.185Z,20.80
2018-08-13T02:39:35.501Z,20.90
2018-08-13T02:43:29.498Z,21.00
2018-08-13T02:47:23.751Z,21.20
2018-08-13T02:51:17.696Z,21.20
2018-08-13T02:55:12.255Z,21.30
2018-08-13T02:59:07.067Z,21.40
2018-08-13T03:03:01.190Z,21.30
2018-08-13T03:11:00.761Z,21.20
2018-08-13T03:14:54.868Z,21.10
2018-08-13T03:18:51.060Z,21.00
2018-08-13T03:22:45.134Z,20.90
2018-08-13T03:26:39.866Z,20.90
2018-08-13T03:30:33.840Z,20.80
2018-08-13T03:34:27.841Z,20.80
2018-08-13T03:38:21.887Z,20.80
2018-08-13T03:42:16.096Z,20.80
2018-08-13T03:46:10.135Z,20.80
2018-08-13T03:50:08.403Z,20.80
2018-08-13T03:54:02.408Z,21.00
2018-08-13T03:57:56.637Z,21.00
2018-08-13T04:01:50.562Z,21.00
2018-08-13T04:05:44.874Z,21.00
2018-08-13T04:09:45.991Z,21.20
2018-08-13T04:13:42.664Z,21.40
2018-08-13T04:17:37.762Z,21.40
2018-08-13T04:21:32.197Z,21.40
2018-08-13T04:25:27.157Z,21.40
2018-08-13T04:29:21.193Z,21.40
2018-08-13T04:33:15.182Z,21.60
2018-08-13T04:37:10.083Z,21.50
2018-08-13T04:41:04.280Z,21.20
2018-08-13T04:44:58.652Z,21.00
2018-08-13T04:48:53.202Z,20.80
2018-08-13T04:52:47.567Z,20.50
2018-08-13T04:56:41.873Z,20.20
2018-08-13T05:00:35.870Z,20.20
2018-08-13T05:04:29.947Z,20.10
2018-08-13T05:08:24.134Z,19.90
2018-08-13T05:12:18.232Z,19.70
2018-08-13T05:16:12.189Z,19.50
2018-08-13T05:20:07.044Z,19.50
2018-08-13T05:24:01.355Z,19.40
2018-08-13T05:27:55.297Z,19.30
2018-08-13T05:31:49.412Z,19.30
2018-08-13T05:35:43.472Z,19.20
2018-08-13T05:39:38.348Z,19.20
2018-08-13T05:43:32.533Z,19.30
2018-08-13T05:47:26.534Z,19.30
2018-08-13T05:51:20.762Z,19.30
2018-08-13T05:55:15.093Z,19.40
2018-08-13T05:59:09.180Z,19.40
2018-08-13T06:03:03.205Z,19.50
2018-08-13T06:06:57.287Z,19.50
2018-08-13T06:10:51.878Z,19.50
2018-08-13T06:14:45.938Z,19.40
2018-08-13T06:18:39.875Z,19.30
2018-08-13T06:22:34.116Z,19.10
2018-08-13T06:26:28.356Z,19.00
2018-08-13T06:30:23.704Z,18.90
2018-08-13T06:34:18.416Z,18.70
2018-08-13T06:38:12.888Z,18.70
2018-08-13T06:42:07.115Z,18.70
2018-08-13T06:46:01.085Z,18.80
2018-08-13T06:49:55.009Z,18.90
2018-08-13T06:53:50.167Z,19.10
2018-08-13T06:57:44.373Z,19.40
2018-08-13T07:01:38.318Z,19.70
2018-08-13T07:05:32.427Z,19.90
2018-08-13T07:09:26.430Z,20.10
2018-08-13T07:13:20.488Z,20.30
2018-08-13T07:17:16.192Z,20.40
2018-08-13T07:21:10.381Z,20.60
2018-08-13T07:25:10.066Z,20.80
2018-08-13T07:29:05.300Z,21.00
2018-08-13T07:32:59.465Z,21.20
2018-08-13T07:36:53.980Z,21.30
2018-08-13T07:40:47.603Z,21.40
2018-08-13T07:44:42.088Z,21.50
2018-08-13T07:48:36.071Z,21.50
2018-08-13T07:52:30.154Z,21.60
2018-08-13T07:56:24.203Z,21.80
2018-08-13T08:00:19.260Z,21.90
2018-08-13T08:04:13.630Z,22.00
2018-08-13T08:08:08.327Z,22.00
2018-08-13T08:12:02.434Z,21.90
2018-08-13T08:15:56.451Z,21.90
2018-08-13T08:19:50.530Z,21.80
2018-08-13T08:23:44.461Z,21.80
2018-08-13T08:27:39.339Z,21.80
2018-08-13T08:31:38.346Z,21.80
2018-08-13T08:35:33.287Z,21.80
2018-08-13T08:39:26.782Z,22.00
2018-08-13T08:43:20.296Z,22.10
2018-08-13T08:47:16.164Z,22.20
2018-08-13T08:51:10.774Z,22.20
2018-08-13T08:55:06.906Z,22.00
2018-08-13T08:59:01.164Z,21.80
2018-08-13T09:02:55.338Z,21.50
2018-08-13T09:06:49.544Z,21.30
2018-08-13T09:10:43.678Z,21.30
2018-08-13T09:14:37.728Z,21.50
2018-08-13T09:18:43.718Z,21.70
2018-08-13T09:22:49.160Z,22.00
2018-08-13T09:26:54.891Z,22.40
2018-08-13T09:33:06.243Z,22.70
2018-08-13T09:36:59.871Z,22.90
2018-08-13T09:40:54.203Z,22.90
2018-08-13T09:44:47.700Z,22.90
2018-08-13T09:48:41.258Z,23.10
2018-08-13T09:52:34.703Z,23.10
2018-08-13T09:56:31.961Z,23.10
2018-08-13T10:00:32.535Z,22.90
2018-08-13T10:04:26.674Z,22.70
2018-08-13T10:08:20.291Z,22.70
2018-08-13T10:12:14.394Z,23.00
2018-08-13T10:16:08.891Z,23.10
2018-08-13T10:20:03.469Z,23.30
2018-08-13T10:23:57.581Z,23.40
2018-08-13T10:27:52.815Z,23.70
2018-08-13T10:31:46.971Z,24.00
2018-08-13T10:35:42.073Z,24.20
2018-08-13T10:39:38.132Z,24.20
2018-08-13T10:43:32.809Z,24.40
2018-08-13T10:47:26.872Z,24.60
2018-08-13T10:51:21.214Z,24.40
2018-08-13T10:55:16.864Z,24.40
2018-08-13T10:59:11.356Z,24.40
2018-08-13T11:03:05.468Z,24.30
2018-08-13T11:07:00.256Z,24.10
2018-08-13T11:10:54.476Z,24.20
2018-08-13T11:14:49.951Z,24.70
2018-08-13T11:18:45.295Z,25.10
2018-08-13T11:22:41.433Z,25.20
2018-08-13T11:26:35.507Z,25.20
2018-08-13T11:30:29.818Z,25.60
2018-08-13T11:34:24.020Z,25.70
2018-08-13T11:38:18.128Z,25.60
2018-08-13T11:42:14.567Z,25.20
2018-08-13T11:46:09.027Z,24.90
2018-08-13T11:50:03.148Z,24.80
2018-08-13T11:53:57.556Z,24.70
2018-08-13T11:57:51.787Z,24.70
2018-08-13T12:01:46.668Z,25.00
2018-08-13T12:05:40.870Z,25.40
2018-08-13T12:09:35.726Z,25.40
2018-08-13T12:13:30.303Z,25.50
2018-08-13T12:17:24.656Z,25.40
2018-08-13T12:21:19.023Z,25.20
2018-08-13T12:25:19.587Z,24.90
2018-08-13T12:29:13.741Z,24.80
2018-08-13T12:33:07.797Z,24.60
2018-08-13T12:37:07.985Z,24.30
2018-08-13T12:41:02.099Z,24.00
2018-08-13T12:44:57.162Z,23.50
2018-08-13T12:48:51.499Z,23.00
2018-08-13T12:52:48.651Z,22.60
2018-08-13T12:56:43.451Z,22.30
2018-08-13T13:00:37.678Z,22.30
2018-08-13T13:04:31.862Z,22.50
2018-08-13T13:08:26.890Z,22.70
2018-08-13T13:12:21.127Z,23.00
2018-08-13T13:16:15.379Z,23.40
2018-08-13T13:20:11.462Z,23.50
2018-08-13T13:24:05.791Z,23.50
2018-08-13T13:27:59.931Z,23.50
2018-08-13T13:31:54.111Z,23.80
2018-08-13T13:35:49.858Z,23.90
2018-08-13T13:39:43.798Z,24.00
2018-08-13T13:43:37.858Z,24.00
2018-08-13T13:47:32.237Z,23.90
2018-08-13T13:51:26.233Z,23.80
2018-08-13T13:55:20.365Z,23.80
2018-08-13T13:59:14.519Z,23.90
2018-08-13T14:03:08.963Z,23.90
2018-08-13T14:07:03.376Z,23.80
2018-08-13T14:11:01.744Z,23.30
2018-08-13T14:15:05.084Z,23.00
2018-08-13T14:19:04.295Z,22.70
2018-08-13T14:23:02.392Z,22.20
2018-08-13T14:27:20.445Z,19.90
2018-08-13T14:31:31.890Z,19.10
2018-08-13T14:35:44.949Z,18.80
2018-08-13T14:39:45.183Z,18.90
2018-08-13T14:43:43.046Z,18.80
2018-08-13T14:47:43.081Z,18.80
2018-08-13T14:51:42.554Z,19.00
2018-08-13T14:55:42.474Z,19.40
2018-08-13T14:59:38.313Z,20.10
2018-08-13T15:08:12.860Z,20.80
2018-08-13T15:12:22.582Z,20.90
2018-08-13T15:16:26.103Z,20.80
2018-08-13T15:20:29.922Z,20.90
2018-08-13T15:24:34.937Z,21.10
2018-08-13T15:28:33.462Z,21.40
2018-08-13T15:32:31.932Z,21.50
2018-08-13T15:36:33.518Z,21.30
2018-08-13T15:44:51.593Z,21.20
2018-08-13T15:53:13.611Z,21.00
2018-08-13T16:01:15.094Z,21.20
2018-08-13T16:05:12.229Z,21.50
2018-08-13T16:13:46.746Z,22.20
2018-08-13T16:17:46.739Z,22.20
2018-08-13T16:21:46.406Z,22.10
2018-08-13T16:25:43.818Z,21.90
2018-08-13T16:29:42.757Z,21.70
2018-08-13T16:33:44.519Z,21.60
2018-08-13T16:37:44.370Z,21.50
2018-08-13T16:41:50.691Z,21.60
2018-08-13T16:50:00.522Z,22.20
2018-08-13T16:58:25.225Z,22.00
2018-08-13T17:10:45.003Z,21.60
2018-08-13T17:14:46.517Z,21.50
2018-08-13T17:19:03.234Z,21.40
2018-08-13T17:23:04.603Z,21.20
2018-08-13T17:26:58.863Z,21.10
2018-08-13T17:30:52.907Z,20.90
2018-08-13T17:34:46.983Z,20.80
2018-08-13T17:38:40.979Z,20.70
2018-08-13T17:42:35.893Z,20.70
2018-08-13T17:46:30.109Z,20.60
2018-08-13T17:50:24.638Z,20.60
2018-08-13T17:54:18.543Z,20.50
2018-08-13T17:58:12.890Z,20.60
2018-08-13T18:02:09.148Z,20.60
2018-08-13T18:06:12.501Z,20.50
2018-08-13T18:10:09.252Z,20.50
2018-08-13T18:14:03.371Z,20.40
2018-08-13T18:17:57.509Z,20.40
2018-08-13T18:21:51.615Z,20.30
2018-08-13T18:25:45.759Z,20.20
2018-08-13T18:29:39.914Z,20.10
2018-08-13T18:33:33.963Z,19.80
2018-08-13T18:37:28.245Z,19.50
2018-08-13T18:41:22.729Z,19.40
2018-08-13T18:45:16.794Z,19.20
2018-08-13T18:49:10.803Z,19.00
2018-08-13T18:53:05.247Z,18.90
2018-08-13T18:56:59.341Z,18.80
2018-08-13T19:00:54.324Z,18.80
2018-08-13T19:04:48.456Z,18.70
2018-08-13T19:08:42.651Z,18.70
2018-08-13T19:12:37.008Z,18.70
2018-08-13T19:16:31.174Z,18.60
2018-08-13T19:20:25.592Z,18.50
2018-08-13T19:24:23.273Z,18.40
2018-08-13T19:28:20.043Z,18.20
2018-08-13T19:32:15.106Z,18.20
2018-08-13T19:36:09.899Z,18.30
2018-08-13T19:40:04.946Z,18.20
2018-08-13T19:44:02.040Z,18.20
2018-08-13T19:47:56.725Z,18.20
2018-08-13T19:51:50.915Z,18.20
2018-08-13T19:55:45.006Z,18.10
2018-08-13T19:59:40.313Z,18.10
2018-08-13T20:03:36.400Z,18.20
2018-08-13T20:07:30.463Z,18.10
2018-08-13T20:11:24.664Z,18.00
2018-08-13T20:15:19.384Z,17.90
2018-08-13T20:19:14.364Z,18.00
2018-08-13T20:23:08.891Z,18.00
2018-08-13T20:27:03.288Z,18.10
2018-08-13T20:30:57.343Z,18.00
2018-08-13T20:34:51.712Z,18.00
2018-08-13T20:38:48.447Z,17.90
2018-08-13T20:42:45.630Z,17.90
2018-08-13T20:46:40.025Z,17.90
2018-08-13T20:50:34.515Z,18.00
2018-08-13T20:54:28.760Z,18.00
2018-08-13T20:58:23.047Z,18.00
2018-08-13T21:02:17.222Z,17.90
2018-08-13T21:06:11.516Z,17.90
2018-08-13T21:10:07.139Z,17.90
2018-08-13T21:14:04.120Z,17.90
2018-08-13T21:17:58.143Z,17.80
2018-08-13T21:21:53.448Z,17.80
2018-08-13T21:25:47.562Z,17.70
2018-08-13T21:29:42.190Z,17.70
2018-08-13T21:33:36.204Z,17.60
2018-08-13T21:37:30.753Z,17.60
2018-08-13T21:41:25.287Z,17.70
2018-08-13T21:45:20.348Z,17.70
2018-08-13T21:49:14.383Z,17.70
2018-08-13T21:53:09.801Z,17.50
2018-08-13T21:57:03.932Z,17.50
2018-08-13T22:01:04.120Z,17.50
2018-08-13T22:04:58.067Z,17.40
2018-08-13T22:08:52.098Z,17.40
2018-08-13T22:12:46.207Z,17.40
2018-08-13T22:16:40.432Z,17.30
2018-08-13T22:20:36.082Z,17.40
2018-08-13T22:24:41.151Z,17.30
2018-08-13T22:28:35.180Z,17.30
2018-08-13T22:32:30.499Z,17.30
2018-08-13T22:36:25.447Z,17.20
2018-08-13T22:40:20.513Z,17.30
2018-08-13T22:44:14.611Z,17.20
2018-08-13T22:48:08.704Z,17.30
2018-08-13T22:52:02.799Z,17.20
2018-08-13T22:55:56.927Z,17.20
2018-08-13T22:59:51.100Z,17.20
2018-08-13T23:03:45.239Z,17.30
2018-08-13T23:07:40.150Z,17.30
2018-08-13T23:11:34.138Z,17.30
2018-08-13T23:15:28.265Z,17.40
2018-08-13T23:19:22.387Z,17.50
2018-08-13T23:23:16.354Z,17.60
2018-08-13T23:27:10.314Z,17.60
2018-08-13T23:31:04.363Z,17.60
2018-08-13T23:34:58.361Z,17.50
2018-08-13T23:38:52.414Z,17.50
2018-08-13T23:42:46.474Z,17.50
2018-08-13T23:46:41.226Z,17.60
2018-08-13T23:50:35.450Z,17.60
2018-08-13T23:54:29.560Z,17.50
2018-08-13T23:58:23.876Z,17.50
